Aviation Digital Data Service (ADDS)

Output produced by TAFs form (0708 UTC 26 March 2017)
found at http://aviationweather.gov/adds/tafs/
 
KDMN 260541Z 2606/2706 27011KT P6SM FEW150 BKN250 
     FM261700 27020G30KT P6SM SKC 
     FM270200 30011KT P6SM FEW250